• Join FlightAware (Why Join?)
  • Login
  • US Flag 
10:10AM EDT


 

Airport Tracker/Info


-or-


 

Live Flight TrackerFlight Track Log ✈ TFF39 ✈ 14-Aug-2013 ✈ KHTO - 6N7

Flight Track Log - Related Links

Times and Time Zones

All times are in EDT time to prevent confusion due to time zone crossing. See the TFF39 flight status page for this flight to view local times or setup timezone preferences in your user account.

Time Position Orientation Groundspeed Altitude Reporting Facility
EDT Latitude Longitude Course Direction KTS MPH feet Rate Location/Type
07:27AM 40.9667 -73.3333 261° West 139 160 1,500  Level New York TRACON
07:28AM 40.9667 -73.3833 270° West 140 161 1,500  Level New York TRACON
07:29AM 40.9500 -73.4333 246° West 147 169 1,500  Level New York TRACON
07:30AM 40.9167 -73.4667 217° Southwest 146 168 1,500  Level New York TRACON
07:31AM 40.9000 -73.5167 246° West 146 168 1,500  Level New York TRACON
07:32AM 40.7639 -73.7560 261° West  Level Estimated
07:32AM 40.8667 -73.5500 217° Southwest 146 168 1,500  Level New York TRACON
07:33AM 40.8500 -73.5833 237° Southwest 142 163 1,500  Level New York TRACON
07:33AM 40.8333 -73.6333 246° West 140 161 1,500  Level New York TRACON
07:34AM 40.8167 -73.6833 246° West 143 165 1,500  Level New York TRACON
07:35AM 40.8167 -73.7333 270° West 140 161 1,500  Level New York TRACON
07:36AM 40.8000 -73.7833 246° West 139 160 1,600  Climbing New York TRACON
07:37AM 40.7833 -73.8333 246° West 139 160 1,500 -60 Descending New York TRACON
07:38AM 40.7833 -73.8667 270° West 127 146 1,500 -180 Level New York TRACON
07:39AM 40.7667 -73.9000 237° Southwest 114 131 1,200 -360 Descending New York TRACON
07:41AM 40.7167 -73.9667 225° Southwest 105 121 500 -420 Descending New York TRACON
07:44AM 40.7333 -73.9667 90° East  Level FlightAware Approximate
07:51AM 40.7340 -73.9729 90° East  Level Estimated
07:52AM 40.7333 -73.9667 90° East  Level FlightAware Approximate
07:53AM 40.7340 -73.9729 90° East  Level Estimated
07:54AM 40.7333 -73.9667 90° East  Level FlightAware Approximate
07:55AM 40.7340 -73.9729 90° East  Level Estimated
07:56AM 40.7333 -73.9667 90° East  Level FlightAware Approximate
07:57AM 40.7340 -73.9729 90° East  Level Estimated
07:58AM 40.7333 -73.9667 90° East  Level FlightAware Approximate
07:59AM 40.7340 -73.9729 90° East  Level Estimated